Terminal Aerodrome Forecast
Issued by NWS Raleigh/Durham, NC

Home | Current Version | Previous Version | Text Only | Print | Product List | Glossary On
Versions: 1 2 3 4 5 6 7 8 9 10 11 12 13 14 15 16 17 18
000
FTUS42 KRAH 311140
TAFRDU
TAF
KRDU 311140Z 3112/0112 03006KT P6SM SCT250
     FM010900 06003KT 5SM -SHRA BKN015 BKN040 OVC080=

USA.gov is the U.S. government's official web portal to all federal, state and local government web resources and services.